createdAt,value
2018-07-25T00:01:54.517Z,19.85
2018-07-25T00:04:22.332Z,19.66
2018-07-25T00:06:50.418Z,19.48
2018-07-25T00:09:17.519Z,19.48
2018-07-25T00:11:45.649Z,19.48
2018-07-25T00:14:13.163Z,20.08
2018-07-25T00:16:41.309Z,19.44
2018-07-25T00:19:08.402Z,19.42
2018-07-25T00:21:35.505Z,19.42
2018-07-25T00:24:04.388Z,19.46
2018-07-25T00:26:31.468Z,19.51
2018-07-25T00:28:59.580Z,19.59
2018-07-25T00:31:31.042Z,20.19
2018-07-25T00:34:01.952Z,20.48
2018-07-25T00:36:29.170Z,20.62
2018-07-25T00:38:56.240Z,20.08
2018-07-25T00:41:23.444Z,20.63
2018-07-25T00:43:50.462Z,20.08
2018-07-25T00:46:17.578Z,20.64
2018-07-25T00:48:44.612Z,20.70
2018-07-25T00:51:12.574Z,20.15
2018-07-25T00:53:39.763Z,19.98
2018-07-25T00:56:09.387Z,20.02
2018-07-25T00:58:36.452Z,20.49
2018-07-25T01:01:05.498Z,20.18
2018-07-25T01:03:33.438Z,19.96
2018-07-25T01:06:01.388Z,19.84
2018-07-25T01:08:29.660Z,19.84
2018-07-25T01:10:56.728Z,19.82
2018-07-25T01:13:25.195Z,19.62
2018-07-25T01:15:55.192Z,19.38
2018-07-25T01:18:22.402Z,19.32
2018-07-25T01:20:51.680Z,19.22
2018-07-25T01:23:18.895Z,19.86
2018-07-25T01:25:47.974Z,19.36
2018-07-25T01:28:17.788Z,19.39
2018-07-25T01:30:46.632Z,19.36
2018-07-25T01:33:15.132Z,19.39
2018-07-25T01:35:43.623Z,19.41
2018-07-25T01:38:12.656Z,19.39
2018-07-25T01:40:41.726Z,19.44
2018-07-25T01:43:09.093Z,19.51
2018-07-25T01:45:37.686Z,19.52
2018-07-25T01:48:06.665Z,19.40
2018-07-25T01:50:33.980Z,19.35
2018-07-25T01:53:02.137Z,19.07
2018-07-25T01:55:30.341Z,19.01
2018-07-25T01:57:57.726Z,18.93
2018-07-25T02:00:25.511Z,18.88
2018-07-25T02:02:53.668Z,18.89
2018-07-25T02:05:22.476Z,18.63
2018-07-25T02:07:49.591Z,18.56
2018-07-25T02:10:16.681Z,18.54
2018-07-25T02:12:43.776Z,18.38
2018-07-25T02:15:13.866Z,18.44
2018-07-25T02:17:45.093Z,18.36
2018-07-25T02:20:15.187Z,18.31
2018-07-25T02:22:50.430Z,18.71
2018-07-25T02:25:19.457Z,18.19
2018-07-25T02:27:47.450Z,18.76
2018-07-25T02:30:16.505Z,19.04
2018-07-25T02:32:46.641Z,19.18
2018-07-25T02:35:13.753Z,18.62
2018-07-25T02:37:40.917Z,18.50
2018-07-25T02:40:14.211Z,18.43
2018-07-25T02:42:44.508Z,18.33
2018-07-25T02:45:11.639Z,18.30
2018-07-25T02:47:38.637Z,18.24
2018-07-25T02:50:09.749Z,18.33
2018-07-25T02:52:39.809Z,18.50
2018-07-25T02:55:07.210Z,18.54
2018-07-25T02:57:34.293Z,18.44
2018-07-25T03:00:07.574Z,18.29
2018-07-25T03:02:35.742Z,18.09
2018-07-25T03:05:07.316Z,18.18
2018-07-25T03:07:41.658Z,18.22
2018-07-25T03:10:08.678Z,18.22
2018-07-25T03:12:36.266Z,18.19
2018-07-25T03:15:04.845Z,18.29
2018-07-25T03:17:32.559Z,18.23
2018-07-25T03:19:59.620Z,17.90
2018-07-25T03:22:26.760Z,18.49
2018-07-25T03:24:56.658Z,17.96
2018-07-25T03:27:23.731Z,17.87
2018-07-25T03:29:50.782Z,17.94
2018-07-25T03:32:18.465Z,18.14
2018-07-25T03:34:45.512Z,18.33
2018-07-25T03:37:12.601Z,18.28
2018-07-25T03:39:42.672Z,18.73
2018-07-25T03:42:09.702Z,18.36
2018-07-25T03:44:36.700Z,18.30
2018-07-25T03:47:04.202Z,18.24
2018-07-25T03:49:37.993Z,18.36
2018-07-25T03:52:06.013Z,18.30
2018-07-25T03:54:33.275Z,18.16
2018-07-25T03:57:02.975Z,17.91
2018-07-25T03:59:34.904Z,18.44
2018-07-25T04:02:10.304Z,17.95
2018-07-25T04:04:37.408Z,18.09
2018-07-25T04:07:07.526Z,18.03
2018-07-25T04:09:35.639Z,18.10
2018-07-25T04:12:07.745Z,18.60
2018-07-25T04:14:36.567Z,18.24
2018-07-25T04:17:03.722Z,18.17
2018-07-25T04:19:34.799Z,18.25
2018-07-25T04:22:05.024Z,18.33
2018-07-25T04:24:32.232Z,18.60
2018-07-25T04:26:59.304Z,18.89
2018-07-25T04:29:27.116Z,19.94
2018-07-25T04:31:57.411Z,20.44
2018-07-25T04:34:27.531Z,20.13
2018-07-25T04:36:54.675Z,20.14
2018-07-25T04:39:26.844Z,20.56
2018-07-25T04:41:54.937Z,20.80
2018-07-25T04:44:26.594Z,20.59
2018-07-25T04:46:59.965Z,20.64
2018-07-25T04:49:27.093Z,20.71
2018-07-25T04:51:57.175Z,21.18
2018-07-25T04:54:25.237Z,21.39
2018-07-25T04:56:52.415Z,21.74
2018-07-25T04:59:20.472Z,22.40
2018-07-25T05:01:48.093Z,22.13
2018-07-25T05:04:15.221Z,22.65
2018-07-25T05:06:42.352Z,22.46
2018-07-25T05:09:10.211Z,22.00
2018-07-25T05:11:39.222Z,22.74
2018-07-25T05:14:07.467Z,22.39
2018-07-25T05:16:40.280Z,22.27
2018-07-25T05:19:11.701Z,22.38
2018-07-25T05:21:45.100Z,23.14
2018-07-25T05:24:13.182Z,22.75
2018-07-25T05:26:41.180Z,23.20
2018-07-25T05:29:10.194Z,22.99
2018-07-25T05:31:37.225Z,22.61
2018-07-25T05:34:04.465Z,22.96
2018-07-25T05:36:33.624Z,23.15
2018-07-25T05:39:00.892Z,23.37
2018-07-25T05:41:34.473Z,23.25
2018-07-25T05:44:01.683Z,23.43
2018-07-25T05:46:36.306Z,23.45
2018-07-25T05:49:05.385Z,23.57
2018-07-25T05:51:32.510Z,23.63
2018-07-25T05:54:07.344Z,23.85
2018-07-25T05:56:35.118Z,23.75
2018-07-25T05:59:04.345Z,23.48
2018-07-25T06:01:33.224Z,23.62
2018-07-25T06:04:00.364Z,23.55
2018-07-25T06:06:28.084Z,23.80
2018-07-25T06:08:55.336Z,23.88
2018-07-25T06:11:23.551Z,23.74
2018-07-25T06:13:54.698Z,23.67
2018-07-25T06:16:21.888Z,24.33
2018-07-25T06:18:50.792Z,24.16
2018-07-25T06:21:22.437Z,24.57
2018-07-25T06:23:51.192Z,24.18
2018-07-25T06:26:19.163Z,24.60
2018-07-25T06:28:46.224Z,24.87
2018-07-25T06:31:14.399Z,25.38
2018-07-25T06:33:41.538Z,25.50
2018-07-25T06:36:09.168Z,25.63
2018-07-25T06:38:37.260Z,25.39
2018-07-25T06:41:04.353Z,25.52
2018-07-25T06:43:31.431Z,26.10
2018-07-25T06:46:00.170Z,26.30
2018-07-25T06:48:28.138Z,27.18
2018-07-25T06:50:55.254Z,27.17
2018-07-25T06:53:22.367Z,26.81
2018-07-25T06:55:53.975Z,27.26
2018-07-25T06:58:21.661Z,27.00
2018-07-25T07:00:51.852Z,27.42
2018-07-25T07:03:23.150Z,27.07
2018-07-25T07:05:50.236Z,27.28
2018-07-25T07:08:17.321Z,27.10
2018-07-25T07:10:44.404Z,27.03
2018-07-25T07:13:12.207Z,27.42
2018-07-25T07:15:39.498Z,28.33
2018-07-25T07:18:07.168Z,28.73
2018-07-25T07:20:34.185Z,28.54
2018-07-25T07:23:01.461Z,28.75
2018-07-25T07:25:28.772Z,28.17
2018-07-25T07:27:55.921Z,28.26
2018-07-25T07:30:25.197Z,27.98
2018-07-25T07:32:53.283Z,27.70
2018-07-25T07:35:23.567Z,28.15
2018-07-25T07:37:53.805Z,28.42
2018-07-25T07:40:20.849Z,28.55
2018-07-25T07:42:49.641Z,28.74
2018-07-25T07:45:16.714Z,28.22
2018-07-25T07:47:43.843Z,28.73
2018-07-25T07:50:10.911Z,29.12
2018-07-25T07:52:38.082Z,29.43
2018-07-25T07:55:06.217Z,30.18
2018-07-25T07:57:33.288Z,30.16
2018-07-25T08:00:01.422Z,29.89
2018-07-25T08:02:31.588Z,29.88
2018-07-25T08:05:01.817Z,29.51
2018-07-25T08:07:29.839Z,29.32
2018-07-25T08:09:56.927Z,29.63
2018-07-25T08:12:24.195Z,29.78
2018-07-25T08:14:52.286Z,29.79
2018-07-25T08:17:19.316Z,29.66
2018-07-25T08:19:46.380Z,30.12
2018-07-25T08:22:15.451Z,30.52
2018-07-25T08:24:46.308Z,30.66
2018-07-25T08:27:14.331Z,30.31
2018-07-25T08:29:42.407Z,30.73
2018-07-25T08:32:16.521Z,30.84
2018-07-25T08:34:45.377Z,30.86
2018-07-25T08:37:12.503Z,30.77
2018-07-25T08:39:42.670Z,31.29
2018-07-25T08:42:13.206Z,31.60
2018-07-25T08:44:40.296Z,32.32
2018-07-25T08:47:13.598Z,32.02
2018-07-25T08:49:40.804Z,31.43
2018-07-25T08:52:12.752Z,31.52
2018-07-25T08:54:39.907Z,31.52
2018-07-25T08:57:10.416Z,32.13
2018-07-25T08:59:37.488Z,31.95
2018-07-25T09:02:08.709Z,31.12
2018-07-25T09:04:35.807Z,30.79
2018-07-25T09:07:07.450Z,31.49
2018-07-25T09:09:34.614Z,31.89
2018-07-25T09:12:01.666Z,31.92
2018-07-25T09:14:28.748Z,32.12
2018-07-25T09:16:56.827Z,31.26
2018-07-25T09:19:27.807Z,31.92
2018-07-25T09:21:55.980Z,32.48
2018-07-25T09:24:26.216Z,32.44
2018-07-25T09:26:53.344Z,32.33
2018-07-25T09:29:20.516Z,32.55
2018-07-25T09:31:47.637Z,32.84
2018-07-25T09:34:15.017Z,32.79
2018-07-25T09:36:51.049Z,33.39
2018-07-25T09:39:21.807Z,32.92
2018-07-25T09:41:52.149Z,33.04
2018-07-25T09:44:20.803Z,33.97
2018-07-25T09:46:48.000Z,33.70
2018-07-25T09:49:15.101Z,34.56
2018-07-25T09:51:42.418Z,34.07
2018-07-25T09:54:11.623Z,34.02
2018-07-25T09:56:41.727Z,34.87
2018-07-25T09:59:08.821Z,34.72
2018-07-25T10:01:38.270Z,34.94
2018-07-25T10:04:05.412Z,34.74
2018-07-25T10:06:32.493Z,34.93
2018-07-25T10:08:59.578Z,35.39
2018-07-25T10:11:27.716Z,35.48
2018-07-25T10:13:56.707Z,34.89
2018-07-25T10:16:25.888Z,34.73
2018-07-25T10:18:56.120Z,34.83
2018-07-25T10:21:23.890Z,34.49
2018-07-25T10:23:51.060Z,34.97
2018-07-25T10:26:18.209Z,35.31
2018-07-25T10:28:47.848Z,35.22
2018-07-25T10:31:17.279Z,34.81
2018-07-25T10:33:44.549Z,35.01
2018-07-25T10:36:11.953Z,35.31
2018-07-25T10:38:39.807Z,35.28
2018-07-25T10:41:06.984Z,35.09
2018-07-25T10:43:34.090Z,34.87
2018-07-25T10:46:01.207Z,35.37
2018-07-25T10:48:28.305Z,35.35
2018-07-25T10:50:55.360Z,35.49
2018-07-25T10:53:22.590Z,34.92
2018-07-25T10:55:49.779Z,34.81
2018-07-25T10:58:16.764Z,34.90
2018-07-25T11:00:43.883Z,35.37
2018-07-25T11:03:14.600Z,35.95
2018-07-25T11:05:41.706Z,36.10
2018-07-25T11:08:08.734Z,35.55
2018-07-25T11:10:35.891Z,35.74
2018-07-25T11:13:04.029Z,35.00
2018-07-25T11:15:31.875Z,35.45
2018-07-25T11:18:00.252Z,35.01
2018-07-25T11:20:27.291Z,35.52
2018-07-25T11:22:54.547Z,36.59
2018-07-25T11:25:21.793Z,36.90
2018-07-25T11:27:49.964Z,36.57
2018-07-25T11:30:17.054Z,37.02
2018-07-25T11:32:47.362Z,36.77
2018-07-25T11:35:15.415Z,36.54
2018-07-25T11:37:42.596Z,36.18
2018-07-25T11:40:10.240Z,35.84
2018-07-25T11:42:38.022Z,36.34
2018-07-25T11:45:05.136Z,35.36
2018-07-25T11:47:32.206Z,34.80
2018-07-25T11:49:59.290Z,35.25
2018-07-25T11:52:27.352Z,34.90
2018-07-25T11:54:54.601Z,35.11
2018-07-25T11:57:21.931Z,35.17
2018-07-25T11:59:48.970Z,35.35
2018-07-25T12:02:16.076Z,34.68
2018-07-25T12:04:44.875Z,34.56
2018-07-25T12:07:11.957Z,34.83
2018-07-25T12:09:39.052Z,35.13
2018-07-25T12:12:06.300Z,34.69
2018-07-25T12:14:34.454Z,35.33
2018-07-25T12:17:02.397Z,35.67
2018-07-25T12:19:34.072Z,35.44
2018-07-25T12:22:04.211Z,35.83
2018-07-25T12:24:31.308Z,35.73
2018-07-25T12:26:58.514Z,35.77
2018-07-25T12:29:28.620Z,36.05
2018-07-25T12:31:55.685Z,35.47
2018-07-25T12:36:50.161Z,35.27
2018-07-25T12:39:20.504Z,35.74
2018-07-25T12:41:48.378Z,35.96
2018-07-25T12:44:15.453Z,35.76
2018-07-25T12:46:42.545Z,36.08
2018-07-25T12:49:15.513Z,36.45
2018-07-25T12:51:42.636Z,36.52
2018-07-25T12:54:09.913Z,36.34
2018-07-25T12:56:39.944Z,36.23
2018-07-25T12:59:07.022Z,36.25
2018-07-25T13:01:34.096Z,35.91
2018-07-25T13:04:01.191Z,36.12
2018-07-25T13:06:28.352Z,36.43
2018-07-25T13:08:55.452Z,36.52
2018-07-25T13:11:24.488Z,36.47
2018-07-25T13:13:51.621Z,36.21
2018-07-25T13:16:18.712Z,36.74
2018-07-25T13:18:46.104Z,36.44
2018-07-25T13:21:16.931Z,35.73
2018-07-25T13:23:47.092Z,35.39
2018-07-25T13:26:17.403Z,35.35
2018-07-25T13:28:45.537Z,35.56
2018-07-25T13:31:12.612Z,35.86
2018-07-25T13:33:39.706Z,35.56
2018-07-25T13:36:07.006Z,35.25
2018-07-25T13:38:34.014Z,35.53
2018-07-25T13:41:01.148Z,35.67
2018-07-25T13:43:28.648Z,35.55
2018-07-25T13:45:56.922Z,35.85
2018-07-25T13:48:31.369Z,36.20
2018-07-25T13:50:58.517Z,36.37
2018-07-25T13:53:28.066Z,35.96
2018-07-25T13:55:56.793Z,36.53
2018-07-25T13:58:24.538Z,36.33
2018-07-25T14:00:51.667Z,36.87
2018-07-25T14:03:20.761Z,37.20
2018-07-25T14:05:50.982Z,37.27
2018-07-25T14:08:19.959Z,37.27
2018-07-25T14:10:48.088Z,36.62
2018-07-25T14:13:15.166Z,37.22
2018-07-25T14:15:45.260Z,36.58
2018-07-25T14:18:21.906Z,37.27
2018-07-25T14:20:54.621Z,37.07
2018-07-25T14:23:25.525Z,37.82
2018-07-25T14:25:52.617Z,36.78
2018-07-25T14:28:19.781Z,36.45
2018-07-25T14:30:55.580Z,36.60
2018-07-25T14:33:26.037Z,36.45
2018-07-25T14:35:53.182Z,36.69
2018-07-25T14:38:20.252Z,36.94
2018-07-25T14:40:47.924Z,36.85
2018-07-25T14:43:16.075Z,36.59
2018-07-25T14:45:43.914Z,36.11
2018-07-25T14:48:11.036Z,36.04
2018-07-25T14:50:38.185Z,35.36
2018-07-25T14:53:05.329Z,35.58
2018-07-25T14:55:32.451Z,36.40
2018-07-25T14:57:59.649Z,37.35
2018-07-25T15:03:04.881Z,38.02
2018-07-25T15:05:32.004Z,37.83
2018-07-25T15:08:05.641Z,38.21
2018-07-25T15:10:32.807Z,37.77
2018-07-25T15:13:00.997Z,37.83
2018-07-25T15:15:30.040Z,37.57
2018-07-25T15:17:57.192Z,38.02
2018-07-25T15:20:27.322Z,38.72
2018-07-25T15:22:54.409Z,38.80
2018-07-25T15:25:22.619Z,39.36
2018-07-25T15:27:55.246Z,39.93
2018-07-25T15:30:23.464Z,39.22
2018-07-25T15:32:50.695Z,40.53
2018-07-25T15:35:18.714Z,38.84
2018-07-25T15:37:46.020Z,38.46
2018-07-25T15:40:13.165Z,38.57
2018-07-25T15:42:40.322Z,39.41
2018-07-25T15:45:07.436Z,39.89
2018-07-25T15:47:34.681Z,40.68
2018-07-25T15:50:01.828Z,40.59
2018-07-25T15:52:28.944Z,39.82
2018-07-25T15:54:58.134Z,40.34
2018-07-25T15:57:26.024Z,39.95
2018-07-25T15:59:55.232Z,39.64
2018-07-25T16:02:22.458Z,39.13
2018-07-25T16:04:49.577Z,37.94
2018-07-25T16:07:16.693Z,37.85
2018-07-25T16:09:47.225Z,37.55
2018-07-25T16:12:16.142Z,38.81
2018-07-25T16:14:44.060Z,40.31
2018-07-25T16:17:11.288Z,40.52
2018-07-25T16:19:38.413Z,41.10
2018-07-25T16:22:11.120Z,40.42
2018-07-25T16:24:43.205Z,41.07
2018-07-25T16:27:10.389Z,41.01
2018-07-25T16:29:39.071Z,40.43
2018-07-25T16:32:06.221Z,41.01
2018-07-25T16:34:34.346Z,40.70
2018-07-25T16:37:02.449Z,41.78
2018-07-25T16:39:29.517Z,42.64
2018-07-25T16:41:56.694Z,42.59
2018-07-25T16:44:23.886Z,42.03
2018-07-25T16:46:51.973Z,42.20
2018-07-25T16:49:19.144Z,42.65
2018-07-25T16:51:52.284Z,41.74
2018-07-25T16:54:20.508Z,41.99
2018-07-25T16:56:47.794Z,43.32
2018-07-25T16:59:14.926Z,43.39
2018-07-25T17:01:42.676Z,43.14
2018-07-25T17:04:11.846Z,44.64
2018-07-25T17:06:39.156Z,44.81
2018-07-25T17:09:08.053Z,45.95
2018-07-25T17:11:35.283Z,47.07
2018-07-25T17:14:08.737Z,46.35
2018-07-25T17:16:35.980Z,47.25
2018-07-25T17:19:03.116Z,46.07
2018-07-25T17:21:30.411Z,45.44
2018-07-25T17:23:59.865Z,45.14
2018-07-25T17:26:27.595Z,44.61
2018-07-25T17:28:54.845Z,43.88
2018-07-25T17:31:21.944Z,43.74
2018-07-25T17:33:49.264Z,42.98
2018-07-25T17:36:16.501Z,43.38
2018-07-25T17:38:44.553Z,44.18
2018-07-25T17:41:12.590Z,41.69
2018-07-25T17:43:39.921Z,41.24
2018-07-25T17:46:07.577Z,39.64
2018-07-25T17:48:34.690Z,40.33
2018-07-25T17:51:03.350Z,41.72
2018-07-25T17:53:30.629Z,42.32
2018-07-25T17:55:57.643Z,42.72
2018-07-25T17:58:24.865Z,42.72
2018-07-25T18:00:56.189Z,44.27
2018-07-25T18:03:23.699Z,43.14
2018-07-25T18:05:51.605Z,43.16
2018-07-25T18:08:19.611Z,43.80
2018-07-25T18:10:46.794Z,43.70
2018-07-25T18:13:19.600Z,42.33
2018-07-25T18:15:46.708Z,41.35
2018-07-25T18:18:13.718Z,41.26
2018-07-25T18:20:40.798Z,38.61
2018-07-25T18:23:08.224Z,37.30
2018-07-25T18:25:35.380Z,36.33
2018-07-25T18:28:02.604Z,35.32
2018-07-25T18:30:29.692Z,35.86
2018-07-25T18:32:56.831Z,34.00
2018-07-25T18:35:24.297Z,33.40
2018-07-25T18:37:51.641Z,34.09
2018-07-25T18:40:20.742Z,33.97
2018-07-25T18:42:47.836Z,32.71
2018-07-25T18:45:18.028Z,32.25
2018-07-25T18:47:46.032Z,31.75
2018-07-25T18:50:19.649Z,31.31
2018-07-25T18:52:47.164Z,30.95
2018-07-25T18:55:15.301Z,31.71
2018-07-25T18:57:43.514Z,30.76
2018-07-25T19:00:12.099Z,30.91
2018-07-25T19:02:40.212Z,29.82
2018-07-25T19:05:14.345Z,29.57
2018-07-25T19:07:44.404Z,29.40
2018-07-25T19:10:11.546Z,29.27
2018-07-25T19:12:38.800Z,29.11
2018-07-25T19:15:11.649Z,28.98
2018-07-25T19:17:38.756Z,28.93
2018-07-25T19:20:05.807Z,28.44
2018-07-25T19:22:36.386Z,27.77
2018-07-25T19:25:05.308Z,27.64
2018-07-25T19:27:32.488Z,27.84
2018-07-25T19:29:59.633Z,27.31
2018-07-25T19:32:27.662Z,27.34
2018-07-25T19:34:54.793Z,27.21
2018-07-25T19:37:21.863Z,27.46
2018-07-25T19:39:48.959Z,27.48
2018-07-25T19:42:16.219Z,28.13
2018-07-25T19:44:43.393Z,27.91
2018-07-25T19:47:18.361Z,27.77
2018-07-25T19:49:46.229Z,27.86
2018-07-25T19:52:13.356Z,27.85
2018-07-25T19:54:40.571Z,27.84
2018-07-25T19:57:07.760Z,27.68
2018-07-25T19:59:39.090Z,27.45
2018-07-25T20:02:06.339Z,27.38
2018-07-25T20:04:33.468Z,27.33
2018-07-25T20:07:01.212Z,27.29
2018-07-25T20:09:29.272Z,27.76
2018-07-25T20:12:00.037Z,27.42
2018-07-25T20:14:32.970Z,27.41
2018-07-25T20:17:01.727Z,27.24
2018-07-25T20:19:28.892Z,27.12
2018-07-25T20:21:58.743Z,27.71
2018-07-25T20:24:25.937Z,27.11
2018-07-25T20:26:53.808Z,26.75
2018-07-25T20:29:21.389Z,27.31
2018-07-25T20:31:54.467Z,27.50
2018-07-25T20:34:22.395Z,26.87
2018-07-25T20:36:50.456Z,26.61
2018-07-25T20:39:17.525Z,27.07
2018-07-25T20:41:45.640Z,26.21
2018-07-25T20:44:14.737Z,25.97
2018-07-25T20:46:45.076Z,25.53
2018-07-25T20:49:12.207Z,25.37
2018-07-25T20:51:39.455Z,25.01
2018-07-25T20:54:14.795Z,24.97
2018-07-25T20:56:54.016Z,24.77
2018-07-25T20:59:21.140Z,24.79
2018-07-25T21:01:51.201Z,24.73
2018-07-25T21:04:19.192Z,24.68
2018-07-25T21:06:47.322Z,24.74
2018-07-25T21:09:16.215Z,24.75
2018-07-25T21:11:45.116Z,24.70
2018-07-25T21:14:23.305Z,25.31
2018-07-25T21:16:52.240Z,24.90
2018-07-25T21:19:19.341Z,25.26
2018-07-25T21:21:46.426Z,25.56
2018-07-25T21:24:14.142Z,25.22
2018-07-25T21:26:41.263Z,25.17
2018-07-25T21:29:11.481Z,25.73
2018-07-25T21:31:40.172Z,25.30
2018-07-25T21:34:09.219Z,25.32
2018-07-25T21:36:44.779Z,25.26
2018-07-25T21:39:13.248Z,25.06
2018-07-25T21:41:40.624Z,25.08
2018-07-25T21:44:08.283Z,25.12
2018-07-25T21:46:35.358Z,24.99
2018-07-25T21:49:02.935Z,24.94
2018-07-25T21:51:30.032Z,25.39
2018-07-25T21:53:58.088Z,25.61
2018-07-25T21:56:25.328Z,25.51
2018-07-25T21:58:52.534Z,25.48
2018-07-25T22:01:33.430Z,24.80
2018-07-25T22:04:00.536Z,24.70
2018-07-25T22:06:27.642Z,24.75
2018-07-25T22:08:56.220Z,25.33
2018-07-25T22:11:23.237Z,24.73
2018-07-25T22:13:57.721Z,24.57
2018-07-25T22:16:27.986Z,25.11
2018-07-25T22:18:56.486Z,24.65
2018-07-25T22:21:23.705Z,24.52
2018-07-25T22:23:50.844Z,24.31
2018-07-25T22:26:17.949Z,24.43
2018-07-25T22:28:45.114Z,23.91
2018-07-25T22:31:12.170Z,23.86
2018-07-25T22:33:39.233Z,24.23
2018-07-25T22:36:06.948Z,24.36
2018-07-25T22:38:34.015Z,23.98
2018-07-25T22:41:01.108Z,24.02
2018-07-25T22:43:29.148Z,24.49
2018-07-25T22:45:56.337Z,24.78
2018-07-25T22:48:25.468Z,24.86
2018-07-25T22:50:52.513Z,24.31
2018-07-25T22:53:25.292Z,24.65
2018-07-25T22:55:52.415Z,24.12
2018-07-25T22:58:22.427Z,23.65
2018-07-25T23:00:50.376Z,23.70
2018-07-25T23:03:19.196Z,23.59
2018-07-25T23:05:49.340Z,23.51
2018-07-25T23:08:17.337Z,23.60
2018-07-25T23:10:47.662Z,23.61
2018-07-25T23:13:14.736Z,23.56
2018-07-25T23:15:44.769Z,23.54
2018-07-25T23:18:21.238Z,23.42
2018-07-25T23:20:48.329Z,23.37
2018-07-25T23:23:15.358Z,23.49
2018-07-25T23:25:42.359Z,23.25
2018-07-25T23:28:12.431Z,23.76
2018-07-25T23:30:40.538Z,23.34
2018-07-25T23:33:12.276Z,23.25
2018-07-25T23:35:39.359Z,23.18
2018-07-25T23:38:06.654Z,23.43
2018-07-25T23:40:33.770Z,22.91
2018-07-25T23:43:00.799Z,22.75
2018-07-25T23:45:27.875Z,22.71
2018-07-25T23:48:06.229Z,23.39
2018-07-25T23:50:34.312Z,22.79
2018-07-25T23:53:03.352Z,22.44
2018-07-25T23:55:37.841Z,22.35
2018-07-25T23:58:05.761Z,22.71
